Latest Weather Observations for Low Rocky Point

IDT60801

Issued at 3:01 pm EST Saturday 25 June 2016 (issued every 30 minutes, with the page automatically refreshed every 10 minutes)

About weather observations | Map of weather stations | Latest weather observations for TAS | Other Formats
Station Details ID: 097080 Name: LOW ROCKY POINT Lat: -42.98 Lon: 145.50 Height: 34.0 m
Data from the previous 72 hours. | See also: Recent months at Low Rocky Point
Date/Time
EST
Temp
°C
App
Temp
°C
Dew
Point
Rel
Hum
%
Delta-T
°C
Wind Press
QNH
hPa
Press
MSL
hPa
Rain
since 9 am
mm
Dir
 
Spd
km/h
Gust
km/h
Spd
kts
Gust
kts
25/03:00pm 9.0 4.6 8.9 99 0.0 NNW 22 30 12 16 1016.6 1016.6 0.2
25/02:30pm 8.9 4.1 8.8 99 0.0 N 24 32 13 17 1016.6 1016.6 0.2
25/02:00pm 8.5 4.0 8.4 99 0.0 N 22 32 12 17 1016.8 1016.9 0.2
25/01:30pm 8.1 3.0 7.8 98 0.1 N 24 30 13 16 1017.1 1017.1 0.2
25/01:00pm 8.6 4.9 8.0 96 0.3 N 17 22 9 12 1017.2 1017.3 0.2
25/12:30pm 8.5 4.5 6.8 89 0.8 N 17 24 9 13 1017.4 1017.4 0.0
25/12:00pm 9.6 4.7 6.7 82 1.4 NW 22 30 12 16 1017.6 1017.7 0.0
25/11:30am 10.2 5.5 6.0 75 1.9 NW 20 35 11 19 1017.8 1017.8 0.0
25/11:00am 9.8 5.2 5.6 75 1.9 NW 19 28 10 15 1018.0 1018.1 0.0
25/10:30am 9.9 5.0 5.1 72 2.2 W 20 32 11 17 1018.0 1018.0 0.0
25/10:00am 9.5 6.7 5.1 74 2.0 WNW 9 13 5 7 1017.8 1017.9 0.0
25/09:30am 9.0 5.3 4.4 73 2.0 W 13 20 7 11 1017.8 1017.8 0.0
25/09:00am 8.6 4.1 4.2 74 1.9 W 17 24 9 13 1017.6 1017.7 10.0
25/08:30am 8.9 4.0 4.1 72 2.1 WSW 19 30 10 16 1017.5 1017.5 10.0
25/08:00am 8.5 2.8 3.1 69 2.3 WSW 22 30 12 16 1017.4 1017.5 10.0
25/07:30am 8.6 2.5 3.0 68 2.4 WSW 24 32 13 17 1017.1 1017.1 10.0
25/07:00am 8.3 2.9 2.5 67 2.4 WSW 20 30 11 16 1016.7 1016.8 10.0
25/06:30am 8.1 1.9 2.1 66 2.5 WSW 24 33 13 18 1016.4 1016.4 10.0
25/06:00am 7.8 1.6 1.9 66 2.4 WSW 24 33 13 18 1016.1 1016.1 10.0
25/05:30am 7.4 1.7 3.1 74 1.8 SW 22 30 12 16 1015.8 1015.8 10.0
25/05:00am 7.5 1.4 3.0 73 1.9 WSW 24 35 13 19 1015.4 1015.5 10.0
25/04:30am 7.3 0.2 3.5 77 1.6 WSW 30 41 16 22 1015.1 1015.2 10.0
25/04:00am 7.0 0.6 3.4 78 1.5 WSW 26 37 14 20 1014.8 1014.9 10.0
25/03:30am 5.9 1.2 2.9 81 1.2 WSW 17 35 9 19 1014.8 1014.9 9.8
25/03:01am 6.2 -1.1 2.5 77 1.5 WSW 30 48 16 26 1014.8 1014.9 9.2
25/03:00am 6.4 -1.2 2.9 78 1.5 SW 32 48 17 26 1014.8 1014.9 9.2
25/02:55am 7.0 -1.1 3.1 76 1.6 WSW 35 48 19 26 1014.6 1014.7 9.2
25/02:49am 8.1 1.0 3.4 72 2.0 W 30 48 16 26 1014.2 1014.3 9.2
25/02:30am 8.0 1.2 3.1 71 2.1 WSW 28 43 15 23 1014.0 1014.1 9.2
25/02:00am 7.7 1.1 2.2 68 2.3 SW 26 35 14 19 1013.6 1013.7 9.2
25/01:30am 7.4 0.3 3.5 76 1.7 WSW 30 41 16 22 1013.3 1013.4 9.2
25/01:00am 7.5 -1.0 3.4 75 1.7 WSW 37 50 20 27 1013.0 1013.1 9.0
25/12:55am 8.2 0.9 2.7 68 2.3 WSW 30 50 16 27 1012.8 1012.9 9.0
25/12:30am 8.0 1.6 3.3 72 2.0 W 26 39 14 21 1012.7 1012.8 9.0
25/12:09am 8.0 1.2 2.9 70 2.2 WSW 28 48 15 26 1012.5 1012.6 9.0
25/12:00am 7.7 0.7 2.0 67 2.3 WSW 28 35 15 19 1012.4 1012.5 9.0
 
Date/Time
EST
Temp
°C
App
Temp
°C
Dew
Point
Rel
Hum
%
Delta-T
°C
Wind Press
QNH
hPa
Press
MSL
hPa
Rain
since 9 am
mm
Dir
 
Spd
km/h
Gust
km/h
Spd
kts
Gust
kts
24/11:30pm 7.9 0.6 2.4 68 2.3 WSW 30 43 16 23 1012.1 1012.2 9.0
24/11:00pm 7.3 1.1 2.2 70 2.1 SW 24 35 13 19 1011.7 1011.8 9.0
24/10:30pm 7.6 1.1 2.9 72 2.0 WSW 26 37 14 20 1011.5 1011.6 9.0
24/10:00pm 7.0 -0.2 3.1 76 1.6 W 30 39 16 21 1011.3 1011.4 9.0
24/09:36pm 7.3 0.3 4.1 80 1.4 WSW 30 50 16 27 1010.8 1010.9 9.0
24/09:30pm 7.1 0.1 3.9 80 1.4 WSW 30 43 16 23 1010.8 1010.9 9.0
24/09:00pm 6.5 1.3 3.5 81 1.3 WSW 20 32 11 17 1010.1 1010.2 9.0
24/08:30pm 6.7 1.7 3.7 81 1.3 SW 19 26 10 14 1009.7 1009.8 8.6
24/08:00pm 5.5 1.2 3.2 85 1.0 SW 15 22 8 12 1009.5 1009.6 8.6
24/07:30pm 5.2 0.8 2.9 85 0.9 SSW 15 22 8 12 1008.9 1009.0 8.6
24/07:00pm 5.8 -1.0 3.1 83 1.1 SSW 28 39 15 21 1008.4 1008.5 8.6
24/06:30pm 6.2 -0.1 3.7 84 1.1 SW 26 37 14 20 1007.7 1007.8 8.6
24/06:01pm 6.3 -1.6 4.1 86 0.9 SSW 35 54 19 29 1006.9 1007.0 8.6
24/06:00pm 6.2 -2.1 4.0 86 0.9 SSW 37 54 20 29 1006.8 1006.9 8.6
24/05:36pm 6.3 -2.7 4.3 87 0.9 SSW 41 59 22 32 1005.9 1006.0 8.6
24/05:30pm 6.1 -3.4 3.9 86 0.9 SSW 43 59 23 32 1005.7 1005.8 8.6
24/05:22pm 6.8 -0.8 3.8 81 1.3 SW 33 50 18 27 1005.6 1005.7 8.6
24/05:20pm 7.3 -0.1 3.9 79 1.5 SW 32 50 17 27 1005.5 1005.6 8.6
24/05:00pm 7.1 0.4 3.9 80 1.4 SW 28 41 15 22 1005.0 1005.1 8.6
24/04:30pm 6.9 1.6 4.9 87 0.9 SW 22 32 12 17 1004.3 1004.4 8.6
24/04:00pm 6.1 -0.1 4.4 89 0.7 SW 26 39 14 21 1003.7 1003.8 8.6
24/03:30pm 6.4 1.3 6.0 97 0.2 WSW 22 35 12 19 1003.3 1003.4 8.6
24/03:00pm 5.7 1.9 5.6 99 0.0 NNE 15 20 8 11 1002.6 1002.7 8.6
24/02:30pm 5.7 2.2 5.6 99 0.0 NNE 13 19 7 10 1001.9 1002.0 8.6
24/02:00pm 5.1 1.5 5.0 99 0.0 NE 13 20 7 11 1001.3 1001.4 8.6
24/01:30pm 4.8 2.5 4.7 99 0.0 NNW 6 15 3 8 1001.3 1001.4 8.6
24/01:00pm 3.9 -1.6 3.8 99 0.0 N 22 30 12 16 1000.7 1000.8 7.8
24/12:30pm 4.1 -1.4 4.0 99 0.0 NNE 22 32 12 17 1000.3 1000.3 6.8
24/12:00pm 3.8 -2.1 3.7 99 0.0 NNE 24 32 13 17 999.9 1000.0 6.8
24/11:30am 3.3 -2.3 3.2 99 0.0 NNE 22 30 12 16 999.8 999.8 6.8
24/11:00am 3.2 -2.1 3.1 99 0.0 N 20 24 11 13 999.9 1000.0 6.4
24/10:30am 2.8 -4.1 2.7 99 0.0 N 28 39 15 21 999.2 999.2 3.4
24/10:00am 3.4 -1.7 3.3 99 0.0 N 19 26 10 14 998.5 998.6 1.8
24/09:30am 3.2 -1.9 3.1 99 0.0 N 19 28 10 15 997.7 997.7 0.6
24/09:00am 2.8 -2.6 2.7 99 0.0 NNE 20 28 11 15 997.3 997.4 6.4
24/08:30am 2.9 -2.8 2.8 99 0.0 NNE 22 28 12 15 996.5 996.5 5.6
24/08:00am 2.5 -3.7 2.2 98 0.1 NNE 24 32 13 17 996.1 996.2 5.0
24/07:30am 2.6 -4.0 2.2 97 0.2 NNE 26 35 14 19 995.7 995.7 5.0
24/07:00am 3.1 -3.0 2.5 96 0.2 NNE 24 35 13 19 995.5 995.6 5.0
24/06:30am 3.9 -1.7 3.2 95 0.3 NNE 22 32 12 17 995.3 995.3 5.0
24/06:00am 6.1 2.1 5.1 93 0.4 NW 15 28 8 15 994.8 994.9 5.0
24/05:30am 4.3 -1.7 3.6 95 0.3 NNE 24 35 13 19 994.1 994.1 5.0
24/05:00am 4.3 -0.9 3.3 93 0.4 NNE 20 26 11 14 994.0 994.1 5.0
24/04:30am 4.6 0.6 2.6 87 0.8 N 13 24 7 13 993.6 993.6 5.0
24/04:00am 6.9 2.3 3.7 80 1.4 WNW 17 20 9 11 993.1 993.2 5.0
24/03:30am 7.2 1.3 4.0 80 1.4 W 24 32 13 17 993.0 993.0 5.0
24/03:00am 7.1 -0.4 4.6 84 1.1 W 33 41 18 22 993.1 993.2 5.0
24/02:30am 7.1 0.7 5.4 89 0.8 WNW 28 52 15 28 992.8 992.8 5.0
24/02:28am 7.1 1.5 5.6 90 0.7 NW 24 48 13 26 992.9 992.9 5.0
24/02:00am 6.3 1.5 4.5 88 0.8 WNW 19 30 10 16 993.0 993.1 5.0
24/01:33am 7.0 -0.5 4.5 84 1.1 W 33 52 18 28 992.7 992.7 4.8
24/01:30am 7.3 -0.6 4.6 83 1.2 W 35 52 19 28 992.7 992.7 4.8
24/01:26am 7.9 0.8 5.4 84 1.1 W 32 50 17 27 992.6 992.6 4.8
24/01:00am 7.6 0.9 5.6 87 0.9 W 30 37 16 20 992.5 992.6 4.8
24/12:30am 7.6 0.7 6.4 92 0.5 W 32 41 17 22 992.6 992.6 4.8
24/12:00am 7.2 0.7 6.6 96 0.3 W 30 37 16 20 992.4 992.5 4.8
 
Date/Time
EST
Temp
°C
App
Temp
°C
Dew
Point
Rel
Hum
%
Delta-T
°C
Wind Press
QNH
hPa
Press
MSL
hPa
Rain
since 9 am
mm
Dir
 
Spd
km/h
Gust
km/h
Spd
kts
Gust
kts
23/11:30pm 4.1 -1.9 3.2 94 0.4 NNE 24 30 13 16 992.2 992.2 4.0
23/11:00pm 6.7 0.7 5.2 90 0.7 NW 26 35 14 19 992.3 992.4 4.0
23/10:30pm 6.0 1.0 4.5 90 0.6 NW 20 26 11 14 992.1 992.1 4.0
23/10:11pm 6.4 -0.8 5.2 92 0.5 WNW 32 48 17 26 992.6 992.6 4.0
23/10:00pm 6.2 -4.1 4.7 90 0.7 W 48 61 26 33 992.6 992.7 3.6
23/09:50pm 6.2 -6.6 4.7 90 0.7 W 61 80 33 43 992.6 992.6 3.6
23/09:35pm 7.1 -4.2 5.4 89 0.8 W 54 83 29 45 992.1 992.1 3.4
23/09:33pm 7.5 -2.6 5.6 88 0.9 W 48 72 26 39 992.2 992.2 3.4
23/09:30pm 7.7 -1.6 6.0 89 0.8 W 44 56 24 30 992.3 992.3 3.4
23/09:14pm 7.1 -0.9 5.7 91 0.6 W 37 52 20 28 992.2 992.2 3.2
23/09:00pm 7.2 -0.3 6.3 94 0.4 WNW 35 46 19 25 991.9 991.9 3.2
23/08:32pm 6.4 -0.2 6.1 98 0.1 NNW 30 61 16 33 991.7 991.7 3.0
23/08:30pm 6.2 0.7 6.1 99 0.0 N 24 46 13 25 991.8 991.8 2.8
23/08:00pm 3.9 -1.7 3.3 96 0.2 N 22 26 12 14 991.2 991.2 2.8
23/07:30pm 4.3 -0.9 3.4 94 0.4 NNE 20 30 11 16 990.8 990.8 2.8
23/07:00pm 6.9 1.0 5.7 92 0.5 NW 26 35 14 19 990.8 990.8 2.8
23/06:39pm 6.3 -1.1 4.9 91 0.6 NW 33 52 18 28 990.8 990.8 2.8
23/06:30pm 6.2 -1.5 5.3 94 0.4 WNW 35 44 19 24 991.0 991.0 2.6
23/06:00pm 5.7 -1.8 4.7 93 0.4 W 33 50 18 27 990.7 990.7 1.4
23/05:55pm 5.9 -1.0 4.7 92 0.5 NW 30 50 16 27 990.8 990.8 1.2
23/05:52pm 6.4 0.8 5.2 92 0.5 NNW 24 50 13 27 990.6 990.6 0.8
23/05:30pm 5.7 1.3 4.5 92 0.5 N 17 20 9 11 990.1 990.1 0.4
23/05:00pm 5.7 -0.2 4.0 89 0.7 N 24 33 13 18 989.5 989.5 0.4
23/04:30pm 6.1 -1.0 3.4 83 1.1 N 30 39 16 21 989.8 989.8 0.4
23/04:27pm 6.2 -0.5 3.5 83 1.1 N 28 39 15 21 989.7 989.7 0.4
23/04:00pm 7.0 2.8 3.6 79 1.5 N 15 20 8 11 989.8 989.8 0.4
23/03:30pm 8.0 0.9 3.3 72 2.0 NW 30 52 16 28 990.0 990.0 0.2
23/03:00pm 9.5 1.1 1.7 58 3.3 NW 35 56 19 30 989.6 989.6 0.2
23/02:56pm 9.9 2.0 2.5 60 3.2 NW 33 54 18 29 989.4 989.4 0.2
23/02:30pm 9.8 2.1 3.3 64 2.8 WNW 33 44 18 24 989.7 989.7 0.2
23/02:00pm 8.7 1.1 4.1 73 2.0 W 33 44 18 24 989.6 989.6 0.2
23/01:30pm 10.2 3.2 4.1 66 2.7 WNW 30 37 16 20 990.0 990.0 0.2
23/01:00pm 10.0 2.1 4.6 69 2.4 WNW 35 41 19 22 990.3 990.3 0.2
23/12:30pm 10.0 1.8 4.8 70 2.3 WNW 37 48 20 26 990.7 990.7 0.2
23/12:00pm 9.6 -0.6 5.4 75 1.9 W 48 57 26 31 991.3 991.3 0.2
23/11:30am 10.6 1.2 5.2 69 2.5 WNW 44 56 24 30 991.0 991.0 0.2
23/11:00am 10.5 1.5 6.6 77 1.9 WNW 43 54 23 29 991.1 991.1 0.2
23/10:30am 10.4 2.3 6.9 79 1.7 WNW 39 54 21 29 991.2 991.2 0.0
23/10:09am 10.5 1.6 6.8 78 1.7 WNW 43 61 23 33 990.9 990.9 0.0
23/10:00am 10.4 3.6 7.5 82 1.4 WNW 33 39 18 21 991.0 991.0 0.0
23/09:30am 10.1 2.1 7.5 84 1.2 NW 39 48 21 26 991.4 991.4 0.0
23/09:00am 9.5 0.9 6.4 81 1.5 NW 41 54 22 29 991.7 991.7 15.0
23/08:30am 9.5 -1.0 7.3 86 1.0 NW 52 61 28 33 991.3 991.3 15.0
23/08:11am 9.4 -1.1 7.2 86 1.0 WNW 52 70 28 38 991.6 991.6 15.0
23/08:00am 9.3 -1.7 6.9 85 1.1 WNW 54 70 29 38 991.6 991.6 15.0
23/07:41am 10.6 0.3 6.6 76 1.9 WNW 50 69 27 37 990.9 990.9 14.6
23/07:30am 10.5 0.1 5.9 73 2.1 WNW 50 63 27 34 990.9 990.9 14.6
23/07:00am 10.8 -0.2 6.7 76 2.0 WNW 54 63 29 34 990.8 990.8 14.6
23/06:30am 11.3 1.0 6.6 73 2.2 WNW 50 61 27 33 990.6 990.6 14.6
23/06:00am 11.4 0.9 7.3 76 2.0 WNW 52 61 28 33 990.7 990.7 14.6
23/05:30am 11.4 1.6 8.6 83 1.4 WNW 50 63 27 34 990.3 990.3 14.6
23/05:00am 11.1 1.1 9.2 88 1.0 WNW 52 59 28 32 990.5 990.5 14.6
23/04:30am 10.5 -0.4 9.6 94 0.5 WNW 57 67 31 36 990.4 990.4 14.6
23/04:17am 10.8 1.5 10.5 98 0.2 NW 50 69 27 37 990.3 990.3 14.4
23/04:00am 11.0 2.2 10.8 99 0.1 NW 48 63 26 34 990.7 990.7 14.4
23/03:30am 9.5 3.3 9.4 99 0.0 NNW 32 54 17 29 990.9 990.9 14.4
23/03:21am 9.7 3.4 9.6 99 0.0 NNW 33 54 18 29 991.0 991.0 14.4
23/03:20am 9.5 3.1 9.4 99 0.0 NNW 33 50 18 27 991.1 991.1 14.4
23/03:00am 8.9 4.8 8.8 99 0.0 NNW 20 30 11 16 991.4 991.4 12.2
23/02:40am 8.4 1.7 8.3 99 0.0 N 33 52 18 28 991.5 991.5 9.6
23/02:30am 8.3 0.9 8.2 99 0.0 N 37 54 20 29 991.5 991.5 8.8
23/02:00am 8.1 0.2 7.8 98 0.1 N 39 57 21 31 991.5 991.5 6.6
23/01:30am 7.8 0.6 7.5 98 0.1 N 35 54 19 29 992.2 992.2 6.4
23/01:14am 7.6 0.3 7.3 98 0.1 N 35 54 19 29 992.5 992.5 6.2
23/01:00am 7.6 0.3 7.2 97 0.2 N 35 48 19 26 992.7 992.8 6.0
23/12:30am 7.3 -0.1 6.9 97 0.2 N 35 48 19 26 993.5 993.5 6.0
23/12:08am 7.5 0.5 6.8 95 0.3 N 33 52 18 28 994.1 994.1 6.0
23/12:00am 7.4 -0.1 6.5 94 0.4 N 35 52 19 28 994.3 994.4 6.0
 
Date/Time
EST
Temp
°C
App
Temp
°C
Dew
Point
Rel
Hum
%
Delta-T
°C
Wind Press
QNH
hPa
Press
MSL
hPa
Rain
since 9 am
mm
Dir
 
Spd
km/h
Gust
km/h
Spd
kts
Gust
kts
22/11:30pm 8.0 1.8 6.1 88 0.9 N 28 48 15 26 994.6 994.6 5.6
22/11:00pm 8.0 2.1 5.8 86 1.0 N 26 37 14 20 995.3 995.4 5.6
22/10:33pm 9.1 2.8 5.5 78 1.6 NNW 28 65 15 35 995.8 995.8 4.8
22/10:30pm 9.3 3.6 4.7 73 2.1 N 24 41 13 22 995.8 995.8 4.6
22/10:23pm 10.3 2.4 4.5 67 2.6 NNW 35 48 19 26 995.4 995.4 4.6
22/10:00pm 11.1 1.7 4.6 64 3.0 NW 43 54 23 29 995.8 995.9 4.6
22/09:30pm 11.0 1.0 4.2 63 3.0 NW 46 61 25 33 996.0 996.0 4.6
22/09:00pm 10.6 1.2 4.7 67 2.7 WNW 43 57 23 31 996.3 996.4 4.6
22/08:30pm 10.6 1.1 4.9 68 2.6 WNW 44 56 24 30 996.4 996.4 4.6
22/08:00pm 10.4 0.0 4.1 65 2.8 WNW 48 61 26 33 996.2 996.3 4.6
22/07:30pm 10.1 -0.5 4.9 70 2.3 WNW 50 61 27 33 996.0 996.0 4.6
22/07:24pm 10.1 -0.5 4.9 70 2.3 WNW 50 69 27 37 995.9 995.9 4.6
22/07:00pm 10.1 -1.0 4.7 69 2.4 WNW 52 59 28 32 995.5 995.6 4.6
22/06:30pm 10.1 -1.3 5.1 71 2.3 W 54 63 29 34 995.1 995.1 4.6
22/06:00pm 9.9 -1.3 5.7 75 1.9 W 54 70 29 38 994.6 994.7 4.6
22/05:30pm 10.0 -0.5 5.4 73 2.1 W 50 69 27 37 994.1 994.1 4.6
22/05:00pm 9.8 -1.5 5.6 75 1.9 W 54 65 29 35 993.8 993.9 4.6
22/04:52pm 10.0 -1.8 5.8 75 1.9 W 57 76 31 41 993.7 993.7 4.6
22/04:30pm 9.8 -1.7 6.2 78 1.7 W 56 69 30 37 993.3 993.3 4.6
22/04:02pm 9.5 -2.0 6.4 81 1.4 W 56 74 30 40 993.1 993.1 4.6
22/04:00pm 9.5 -2.2 6.4 81 1.5 W 57 70 31 38 993.0 993.1 4.6
22/03:45pm 8.2 -4.7 5.8 85 1.1 W 63 91 34 49 993.0 993.0 4.6
22/03:43pm 8.1 -5.2 5.6 84 1.1 W 65 91 35 49 993.2 993.2 4.6
22/03:41pm 8.3 -4.7 5.6 83 1.2 W 63 91 34 49 992.8 992.8 4.6
22/03:39pm 9.4 -2.2 6.8 84 1.2 W 57 83 31 45 992.8 992.8 4.6
22/03:30pm 9.0 -2.3 7.0 87 0.9 W 56 72 30 39 992.7 992.7 4.6

Other Formats:

Comma delimited format used in spreadsheet applications
http://www.bom.gov.au/fwo/IDT60801/IDT60801.95961.axf

JavaScript Object Notation format (JSON) in row-major order
http://www.bom.gov.au/fwo/IDT60801/IDT60801.95961.json